createdAt,value
2018-05-12T00:01:16.641Z,14.50
2018-05-12T00:06:07.687Z,14.43
2018-05-12T00:10:58.749Z,14.40
2018-05-12T00:15:49.785Z,14.40
2018-05-12T00:20:41.532Z,14.39
2018-05-12T00:25:33.362Z,14.35
2018-05-12T00:30:24.383Z,14.33
2018-05-12T00:35:15.471Z,14.32
2018-05-12T00:40:06.477Z,14.30
2018-05-12T00:44:57.509Z,14.24
2018-05-12T00:49:48.539Z,14.18
2018-05-12T00:54:39.598Z,14.13
2018-05-12T00:59:31.362Z,14.11
2018-05-12T01:04:22.388Z,14.08
2018-05-12T01:09:13.469Z,14.05
2018-05-12T01:14:04.499Z,14.03
2018-05-12T01:18:55.548Z,13.96
2018-05-12T01:23:47.325Z,13.91
2018-05-12T01:28:38.442Z,13.89
2018-05-12T01:33:29.464Z,13.85
2018-05-12T01:38:20.524Z,13.84
2018-05-12T01:43:11.540Z,13.84
2018-05-12T01:48:02.569Z,13.79
2018-05-12T01:52:53.626Z,13.76
2018-05-12T01:57:45.448Z,13.73
2018-05-12T02:02:36.471Z,13.69
2018-05-12T02:07:27.487Z,13.67
2018-05-12T02:12:18.598Z,13.64
2018-05-12T02:17:09.662Z,13.63
2018-05-12T02:22:01.434Z,13.59
2018-05-12T02:26:52.460Z,13.57
2018-05-12T02:31:43.555Z,13.56
2018-05-12T02:36:34.606Z,13.56
2018-05-12T02:41:25.635Z,13.58
2018-05-12T02:46:16.651Z,13.59
2018-05-12T02:51:07.655Z,13.64
2018-05-12T02:55:58.735Z,13.72
2018-05-12T03:00:49.801Z,13.74
2018-05-12T03:05:40.853Z,13.74
2018-05-12T03:10:31.883Z,13.75
2018-05-12T03:15:22.928Z,13.78
2018-05-12T03:20:13.937Z,13.81
2018-05-12T03:25:04.960Z,13.84
2018-05-12T03:29:55.969Z,13.88
2018-05-12T03:34:46.989Z,13.95
2018-05-12T03:39:38.023Z,14.02
2018-05-12T03:44:29.051Z,14.08
2018-05-12T03:49:20.087Z,14.13
2018-05-12T03:54:11.137Z,14.18
2018-05-12T03:59:02.919Z,14.22
2018-05-12T04:03:53.979Z,14.28
2018-05-12T04:09:04.568Z,14.32
2018-05-12T04:13:55.652Z,14.34
2018-05-12T04:18:46.676Z,14.35
2018-05-12T04:23:37.688Z,14.36
2018-05-12T04:28:28.720Z,14.37
2018-05-12T04:33:19.817Z,14.42
2018-05-12T04:38:10.872Z,14.45
2018-05-12T04:43:01.914Z,14.47
2018-05-12T04:47:52.941Z,14.47
2018-05-12T04:52:43.955Z,14.49
2018-05-12T04:57:34.989Z,14.50
2018-05-12T05:02:26.057Z,14.52
2018-05-12T05:07:17.096Z,14.55
2018-05-12T05:12:08.121Z,14.59
2018-05-12T05:16:59.180Z,14.66
2018-05-12T05:21:50.255Z,14.76
2018-05-12T05:26:41.400Z,14.87
2018-05-12T05:31:32.596Z,15.01
2018-05-12T05:36:24.421Z,15.13
2018-05-12T05:41:15.449Z,15.25
2018-05-12T05:46:07.231Z,15.38
2018-05-12T05:50:58.309Z,15.50
2018-05-12T05:55:49.315Z,15.61
2018-05-12T06:00:40.364Z,15.75
2018-05-12T06:05:32.135Z,15.87
2018-05-12T06:10:23.178Z,16.00
2018-05-12T06:15:14.231Z,16.17
2018-05-12T06:20:05.240Z,16.31
2018-05-12T06:24:56.280Z,16.45
2018-05-12T06:29:47.309Z,16.62
2018-05-12T06:34:38.319Z,16.81
2018-05-12T06:39:29.456Z,17.04
2018-05-12T06:44:20.498Z,17.25
2018-05-12T06:49:12.280Z,17.54
2018-05-12T06:54:03.317Z,17.73
2018-05-12T06:58:54.365Z,17.96
2018-05-12T07:03:45.376Z,18.27
2018-05-12T07:08:36.425Z,18.64
2018-05-12T07:13:28.194Z,19.50
2018-05-12T07:18:19.237Z,20.40
2018-05-12T07:23:10.297Z,20.34
2018-05-12T07:28:01.324Z,20.85
2018-05-12T07:32:53.101Z,20.84
2018-05-12T07:37:44.112Z,20.36
2018-05-12T07:42:35.195Z,19.96
2018-05-12T07:47:26.282Z,19.69
2018-05-12T07:52:17.368Z,20.18
2018-05-12T07:57:09.136Z,20.27
2018-05-12T08:02:00.212Z,20.18
2018-05-12T08:06:51.282Z,20.08
2018-05-12T08:11:42.319Z,20.02
2018-05-12T08:16:33.359Z,20.45
2018-05-12T08:21:24.398Z,20.73
2018-05-12T08:26:15.439Z,21.15
2018-05-12T08:31:07.223Z,21.29
2018-05-12T08:35:58.251Z,21.22
2018-05-12T08:40:49.270Z,21.13
2018-05-12T08:45:40.415Z,21.33
2018-05-12T08:50:31.450Z,21.63
2018-05-12T08:55:23.999Z,22.09
2018-05-12T09:00:15.050Z,23.53
2018-05-12T09:05:06.077Z,24.70
2018-05-12T09:09:57.861Z,25.78
2018-05-12T09:14:48.899Z,26.66
2018-05-12T09:19:39.989Z,26.81
2018-05-12T09:24:31.022Z,25.53
2018-05-12T09:29:22.095Z,24.96
2018-05-12T09:34:13.115Z,24.81
2018-05-12T09:39:04.123Z,24.62
2018-05-12T09:43:55.250Z,24.27
2018-05-12T09:48:46.306Z,24.44
2018-05-12T09:53:38.079Z,25.32
2018-05-12T09:58:29.143Z,26.29
2018-05-12T10:03:20.277Z,25.69
2018-05-12T10:08:11.300Z,24.64
2018-05-12T10:13:02.345Z,23.92
2018-05-12T10:17:54.126Z,23.53
2018-05-12T10:22:45.214Z,23.40
2018-05-12T10:27:36.283Z,23.45
2018-05-12T10:32:27.342Z,24.16
2018-05-12T10:37:18.382Z,24.52
2018-05-12T10:42:10.303Z,24.28
2018-05-12T10:47:01.377Z,23.93
2018-05-12T10:51:52.414Z,23.54
2018-05-12T10:56:43.469Z,23.37
2018-05-12T11:01:34.535Z,23.38
2018-05-12T11:06:26.283Z,23.31
2018-05-12T11:11:17.350Z,23.17
2018-05-12T11:16:08.473Z,23.10
2018-05-12T11:20:59.406Z,23.13
2018-05-12T11:25:50.461Z,23.34
2018-05-12T11:30:42.348Z,23.53
2018-05-12T11:35:33.423Z,23.67
2018-05-12T11:40:25.227Z,23.82
2018-05-12T11:45:16.265Z,23.70
2018-05-12T11:50:07.375Z,23.64
2018-05-12T11:54:58.389Z,23.69
2018-05-12T11:59:49.430Z,23.77
2018-05-12T12:04:41.220Z,23.83
2018-05-12T12:09:32.356Z,23.97
2018-05-12T12:14:23.405Z,24.14
2018-05-12T12:19:14.466Z,24.43
2018-05-12T12:24:06.230Z,24.52
2018-05-12T12:28:57.356Z,24.76
2018-05-12T12:33:48.386Z,24.77
2018-05-12T12:38:39.424Z,24.79
2018-05-12T12:43:31.597Z,25.02
2018-05-12T12:48:22.702Z,25.46
2018-05-12T12:53:13.755Z,25.55
2018-05-12T12:58:05.665Z,25.65
2018-05-12T13:02:56.699Z,25.81
2018-05-12T13:07:47.720Z,25.73
2018-05-12T13:12:38.722Z,25.84
2018-05-12T13:17:29.758Z,25.91
2018-05-12T13:22:20.785Z,25.99
2018-05-12T13:27:11.864Z,26.00
2018-05-12T13:32:03.643Z,26.04
2018-05-12T13:36:54.723Z,26.00
2018-05-12T13:41:45.808Z,26.00
2018-05-12T13:46:36.831Z,25.98
2018-05-12T13:51:27.874Z,25.98
2018-05-12T13:56:18.895Z,25.77
2018-05-12T14:01:10.200Z,25.75
2018-05-12T14:06:01.211Z,25.93
2018-05-12T14:10:52.270Z,26.03
2018-05-12T14:15:43.317Z,26.03
2018-05-12T14:20:35.113Z,25.96
2018-05-12T14:25:26.228Z,25.99
2018-05-12T14:30:17.322Z,26.02
2018-05-12T14:35:08.377Z,26.00
2018-05-12T14:39:59.401Z,25.86
2018-05-12T14:44:50.465Z,25.75
2018-05-12T14:49:41.527Z,25.82
2018-05-12T14:54:32.631Z,25.94
2018-05-12T14:59:24.396Z,25.85
2018-05-12T15:04:15.451Z,25.84
2018-05-12T15:09:06.526Z,25.81
2018-05-12T15:13:57.579Z,25.79
2018-05-12T15:18:48.592Z,25.84
2018-05-12T15:23:39.670Z,25.80
2018-05-12T15:28:30.704Z,25.73
2018-05-12T15:33:22.474Z,25.77
2018-05-12T15:38:13.505Z,25.62
2018-05-12T15:43:04.553Z,25.54
2018-05-12T15:47:55.584Z,25.60
2018-05-12T15:52:46.609Z,25.61
2018-05-12T15:57:38.382Z,25.52
2018-05-12T16:02:30.257Z,25.45
2018-05-12T16:07:21.287Z,25.41
2018-05-12T16:12:12.382Z,25.39
2018-05-12T16:17:04.140Z,25.35
2018-05-12T16:21:56.678Z,25.30
2018-05-12T16:26:47.721Z,25.27
2018-05-12T16:31:38.854Z,25.25
2018-05-12T16:36:29.814Z,25.16
2018-05-12T16:41:20.869Z,25.09
2018-05-12T16:46:12.664Z,25.06
2018-05-12T16:51:03.777Z,25.00
2018-05-12T16:55:54.905Z,24.93
2018-05-12T17:00:45.933Z,24.94
2018-05-12T17:05:36.993Z,24.91
2018-05-12T17:10:28.771Z,24.86
2018-05-12T17:15:19.809Z,24.79
2018-05-12T17:20:10.849Z,24.74
2018-05-12T17:25:01.862Z,24.68
2018-05-12T17:29:52.938Z,24.64
2018-05-12T17:34:44.671Z,24.60
2018-05-12T17:39:36.453Z,24.58
2018-05-12T17:44:27.505Z,24.53
2018-05-12T17:49:18.592Z,24.42
2018-05-12T17:54:09.619Z,24.38
2018-05-12T17:59:00.685Z,24.33
2018-05-12T18:03:51.707Z,24.25
2018-05-12T18:08:42.755Z,24.21
2018-05-12T18:13:33.769Z,24.17
2018-05-12T18:18:25.527Z,24.09
2018-05-12T18:23:16.628Z,24.02
2018-05-12T18:28:07.636Z,23.94
2018-05-12T18:32:58.689Z,23.86
2018-05-12T18:37:52.133Z,23.75
2018-05-12T18:42:43.270Z,23.68
2018-05-12T18:47:38.286Z,23.57
2018-05-12T18:52:29.359Z,23.46
2018-05-12T18:57:20.427Z,23.36
2018-05-12T19:02:11.463Z,23.27
2018-05-12T19:07:03.219Z,23.17
2018-05-12T19:11:55.001Z,23.09
2018-05-12T19:16:46.031Z,23.00
2018-05-12T19:21:37.075Z,22.91
2018-05-12T19:26:28.276Z,22.81
2018-05-12T19:31:19.313Z,22.70
2018-05-12T19:36:10.337Z,22.55
2018-05-12T19:41:01.377Z,22.42
2018-05-12T19:45:52.387Z,22.30
2018-05-12T19:50:43.441Z,22.19
2018-05-12T19:55:35.249Z,22.12
2018-05-12T20:00:26.279Z,22.02
2018-05-12T20:05:17.337Z,21.93
2018-05-12T20:10:08.410Z,21.82
2018-05-12T20:14:59.471Z,21.72
2018-05-12T20:19:51.199Z,21.62
2018-05-12T20:24:42.229Z,21.52
2018-05-12T20:29:33.967Z,21.46
2018-05-12T20:34:25.747Z,21.34
2018-05-12T20:39:16.821Z,21.21
2018-05-12T20:44:07.879Z,21.11
2018-05-12T20:48:58.941Z,21.03
2018-05-12T20:53:49.971Z,20.97
2018-05-12T20:58:40.986Z,20.89
2018-05-12T21:03:32.011Z,20.81
2018-05-12T21:08:23.046Z,20.71
2018-05-12T21:13:14.047Z,20.59
2018-05-12T21:18:05.080Z,20.51
2018-05-12T21:22:56.125Z,20.42
2018-05-12T21:27:47.143Z,20.35
2018-05-12T21:32:38.158Z,20.25
2018-05-12T21:37:29.175Z,20.16
2018-05-12T21:42:20.253Z,20.08
2018-05-12T21:47:11.275Z,19.99
2018-05-12T21:52:03.066Z,19.90
2018-05-12T21:56:54.127Z,19.86
2018-05-12T22:01:45.916Z,19.83
2018-05-12T22:06:36.941Z,19.76
2018-05-12T22:11:27.983Z,19.66
2018-05-12T22:16:19.036Z,19.57
2018-05-12T22:21:10.843Z,19.50
2018-05-12T22:26:01.878Z,19.42
2018-05-12T22:30:52.919Z,19.36
2018-05-12T22:35:44.014Z,19.28
2018-05-12T22:40:35.031Z,19.17
2018-05-12T22:45:26.080Z,19.11
2018-05-12T22:50:17.101Z,19.07
2018-05-12T22:55:08.123Z,19.02
2018-05-12T22:59:59.167Z,18.99
2018-05-12T23:04:50.954Z,18.96
2018-05-12T23:09:41.977Z,18.92
2018-05-12T23:14:33.005Z,18.89
2018-05-12T23:19:24.047Z,18.85
2018-05-12T23:24:15.210Z,18.83
2018-05-12T23:29:06.220Z,18.77
2018-05-12T23:33:57.999Z,18.74
2018-05-12T23:38:56.093Z,18.68
2018-05-12T23:43:47.187Z,18.61
2018-05-12T23:48:38.976Z,18.52
2018-05-12T23:53:30.016Z,18.47
2018-05-12T23:58:21.858Z,18.42
